createdAt,value
2023-01-29T00:02:09.892Z,11.27
2023-01-29T00:04:36.837Z,8.90
2023-01-29T00:07:03.986Z,17.08
2023-01-29T00:09:31.856Z,10.07
2023-01-29T00:11:58.532Z,12.82
2023-01-29T00:14:27.555Z,9.25
2023-01-29T00:16:54.634Z,7.72
2023-01-29T00:19:21.407Z,5.85
2023-01-29T00:21:47.939Z,6.82
2023-01-29T00:24:15.062Z,8.48
2023-01-29T00:26:43.461Z,8.27
2023-01-29T00:29:11.046Z,6.95
2023-01-29T00:31:38.822Z,7.65
2023-01-29T00:34:07.030Z,9.57
2023-01-29T00:36:34.271Z,7.68
2023-01-29T00:39:02.738Z,10.60
2023-01-29T00:41:51.167Z,8.65
2023-01-29T00:44:37.351Z,11.52
2023-01-29T00:47:05.378Z,12.48
2023-01-29T00:49:32.165Z,9.73
2023-01-29T00:52:17.979Z,11.40
2023-01-29T00:54:44.855Z,8.15
2023-01-29T00:57:11.497Z,7.57
2023-01-29T00:59:38.467Z,10.43
2023-01-29T01:02:23.966Z,9.15
2023-01-29T01:04:51.135Z,11.38
2023-01-29T01:07:17.595Z,8.95
2023-01-29T01:10:03.000Z,9.10
2023-01-29T01:12:30.669Z,8.02
2023-01-29T01:14:57.641Z,12.35
2023-01-29T01:17:24.574Z,8.85
2023-01-29T01:19:51.592Z,7.80
2023-01-29T01:22:18.737Z,7.80
2023-01-29T01:24:45.421Z,10.60
2023-01-29T01:27:12.784Z,9.60
2023-01-29T01:29:39.401Z,11.00
2023-01-29T01:32:06.586Z,11.70
2023-01-29T01:34:33.389Z,10.45
2023-01-29T01:37:01.286Z,20.30
2023-01-29T01:39:27.832Z,10.23
2023-01-29T01:41:54.953Z,9.88
2023-01-29T01:44:54.219Z,9.52
2023-01-29T01:47:26.458Z,11.63
2023-01-29T01:49:55.241Z,9.18
2023-01-29T01:52:21.904Z,11.65
2023-01-29T01:55:12.190Z,10.20
2023-01-29T01:58:06.488Z,12.27
2023-01-29T02:00:53.994Z,9.32
2023-01-29T02:04:09.254Z,15.52
2023-01-29T02:07:16.542Z,12.38
2023-01-29T02:10:12.855Z,12.82
2023-01-29T02:12:40.375Z,11.02
2023-01-29T02:15:07.793Z,11.88
2023-01-29T02:17:34.662Z,11.75
2023-01-29T02:20:10.563Z,12.35
2023-01-29T02:22:47.109Z,10.68
2023-01-29T02:25:41.183Z,14.90
2023-01-29T02:28:55.240Z,17.88
2023-01-29T02:31:28.265Z,11.27
2023-01-29T02:34:01.262Z,11.65
2023-01-29T02:36:41.489Z,9.27
2023-01-29T02:39:34.095Z,10.98
2023-01-29T02:42:41.218Z,9.85
2023-01-29T02:45:18.797Z,12.18
2023-01-29T02:48:01.073Z,9.63
2023-01-29T02:50:51.272Z,12.23
2023-01-29T02:53:42.731Z,9.88
2023-01-29T02:56:21.612Z,8.55
2023-01-29T02:58:54.671Z,10.05
2023-01-29T03:01:31.607Z,13.38
2023-01-29T03:04:06.829Z,9.52
2023-01-29T03:06:38.802Z,13.50
2023-01-29T03:09:13.292Z,10.32
2023-01-29T03:11:47.021Z,7.57
2023-01-29T03:14:19.249Z,11.13
2023-01-29T03:16:50.782Z,11.23
2023-01-29T03:19:38.760Z,9.05
2023-01-29T03:22:16.505Z,15.07
2023-01-29T03:25:15.877Z,11.05
2023-01-29T03:28:21.111Z,8.95
2023-01-29T03:31:13.671Z,12.15
2023-01-29T03:33:50.951Z,10.25
2023-01-29T03:36:23.163Z,10.93
2023-01-29T03:38:49.824Z,8.75
2023-01-29T03:41:31.704Z,12.13
2023-01-29T03:44:30.406Z,10.00
2023-01-29T03:47:13.822Z,9.40
2023-01-29T03:49:43.710Z,11.40
2023-01-29T03:52:24.731Z,10.48
2023-01-29T03:55:16.646Z,10.43
2023-01-29T03:58:03.553Z,10.70
2023-01-29T04:00:40.957Z,7.93
2023-01-29T04:03:23.052Z,13.63
2023-01-29T04:06:10.205Z,12.00
2023-01-29T04:09:00.093Z,14.63
2023-01-29T04:11:29.715Z,11.55
2023-01-29T04:13:57.829Z,10.27
2023-01-29T04:16:32.215Z,10.55
2023-01-29T04:19:12.561Z,10.88
2023-01-29T04:21:42.174Z,13.30
2023-01-29T04:24:11.776Z,16.35
2023-01-29T04:27:16.127Z,11.68
2023-01-29T04:30:02.372Z,12.48
2023-01-29T04:33:05.430Z,13.02
2023-01-29T04:35:36.681Z,11.10
2023-01-29T04:38:16.723Z,12.35
2023-01-29T04:41:06.546Z,13.43
2023-01-29T04:43:53.193Z,12.48
2023-01-29T04:46:51.080Z,11.50
2023-01-29T04:49:46.194Z,15.85
2023-01-29T04:52:20.152Z,10.88
2023-01-29T04:54:53.449Z,10.82
2023-01-29T04:57:31.471Z,11.98
2023-01-29T05:00:10.368Z,12.18
2023-01-29T05:02:41.583Z,14.35
2023-01-29T05:05:10.869Z,11.15
2023-01-29T05:07:39.060Z,10.90
2023-01-29T05:10:08.325Z,13.75
2023-01-29T05:12:36.943Z,13.13
2023-01-29T05:15:08.207Z,10.93
2023-01-29T05:17:35.066Z,14.65
2023-01-29T05:20:01.560Z,12.75
2023-01-29T05:22:29.459Z,13.70
2023-01-29T05:24:56.135Z,13.65
2023-01-29T05:27:51.265Z,11.45
2023-01-29T05:30:18.180Z,9.82
2023-01-29T05:32:45.054Z,13.88
2023-01-29T05:35:12.048Z,11.52
2023-01-29T05:37:38.890Z,15.95
2023-01-29T05:40:09.120Z,12.30
2023-01-29T05:42:35.665Z,10.90
2023-01-29T05:45:02.902Z,9.02
2023-01-29T05:47:29.668Z,11.82
2023-01-29T05:49:56.263Z,11.52
2023-01-29T05:52:22.958Z,11.30
2023-01-29T05:54:49.933Z,9.60
2023-01-29T05:57:16.368Z,13.23
2023-01-29T05:59:43.061Z,10.32
2023-01-29T06:02:09.864Z,11.05
2023-01-29T06:04:36.699Z,14.73
2023-01-29T06:07:04.833Z,13.95
2023-01-29T06:09:31.505Z,13.18
2023-01-29T06:11:58.052Z,12.25
2023-01-29T06:14:25.038Z,12.38
2023-01-29T06:16:51.501Z,12.95
2023-01-29T06:19:18.222Z,11.05
2023-01-29T06:21:45.171Z,14.95
2023-01-29T06:24:11.741Z,14.63
2023-01-29T06:26:38.716Z,18.02
2023-01-29T06:29:05.189Z,12.45
2023-01-29T06:31:38.866Z,13.02
2023-01-29T06:34:08.407Z,15.05
2023-01-29T06:36:35.231Z,14.50
2023-01-29T06:39:01.895Z,10.27
2023-01-29T06:41:29.032Z,17.77
2023-01-29T06:43:55.620Z,12.27
2023-01-29T06:46:22.522Z,13.23
2023-01-29T06:48:49.245Z,12.07
2023-01-29T06:51:15.955Z,12.30
2023-01-29T06:53:45.426Z,11.38
2023-01-29T06:56:13.017Z,11.57
2023-01-29T06:58:39.570Z,11.57
2023-01-29T07:01:15.521Z,13.05
2023-01-29T07:03:52.399Z,18.25
2023-01-29T07:06:19.529Z,11.38
2023-01-29T07:08:46.516Z,11.45
2023-01-29T07:11:13.155Z,11.82
2023-01-29T07:13:40.200Z,10.32
2023-01-29T07:16:07.847Z,12.13
2023-01-29T07:18:34.517Z,13.88
2023-01-29T07:21:05.713Z,19.38
2023-01-29T07:23:32.682Z,18.90
2023-01-29T07:26:03.716Z,13.27
2023-01-29T07:28:30.431Z,11.65
2023-01-29T07:31:00.741Z,17.67
2023-01-29T07:33:27.335Z,14.68
2023-01-29T07:35:54.633Z,14.95
2023-01-29T07:38:24.696Z,19.02
2023-01-29T07:40:55.026Z,16.92
2023-01-29T07:43:21.503Z,12.90
2023-01-29T07:45:48.247Z,11.85
2023-01-29T07:48:14.704Z,12.05
2023-01-29T07:50:41.649Z,12.27
2023-01-29T07:53:15.327Z,11.90
2023-01-29T07:55:45.563Z,11.20
2023-01-29T07:58:12.662Z,11.75
2023-01-29T08:00:39.588Z,12.63
2023-01-29T08:03:13.317Z,14.88
2023-01-29T08:05:40.113Z,13.25
2023-01-29T08:08:07.899Z,16.17
2023-01-29T08:10:36.573Z,13.82
2023-01-29T08:13:04.847Z,15.45
2023-01-29T08:15:32.378Z,12.60
2023-01-29T08:17:59.265Z,13.43
2023-01-29T08:20:26.144Z,15.13
2023-01-29T08:23:08.339Z,13.23
2023-01-29T08:25:36.001Z,10.77
2023-01-29T08:28:04.132Z,14.15
2023-01-29T08:30:33.409Z,13.20
2023-01-29T08:33:00.627Z,12.60
2023-01-29T08:35:27.773Z,13.38
2023-01-29T08:37:56.437Z,11.40
2023-01-29T08:40:23.963Z,12.18
2023-01-29T08:42:50.512Z,12.32
2023-01-29T08:45:17.254Z,11.77
2023-01-29T08:47:49.988Z,9.10
2023-01-29T08:50:17.821Z,13.18
2023-01-29T08:52:45.746Z,9.95
2023-01-29T08:55:15.387Z,8.35
2023-01-29T08:57:42.374Z,9.90
2023-01-29T09:00:10.834Z,9.80
2023-01-29T09:02:37.802Z,11.27
2023-01-29T09:05:05.499Z,11.00
2023-01-29T09:07:32.509Z,12.93
2023-01-29T09:09:58.967Z,10.27
2023-01-29T09:12:25.795Z,7.07
2023-01-29T09:14:52.494Z,8.85
2023-01-29T09:17:19.377Z,7.88
2023-01-29T09:19:46.093Z,7.75
2023-01-29T09:22:14.146Z,6.25
2023-01-29T09:24:41.169Z,6.32
2023-01-29T09:27:07.775Z,5.65
2023-01-29T09:29:35.944Z,9.75
2023-01-29T09:32:04.277Z,7.20
2023-01-29T09:34:30.885Z,9.57
2023-01-29T09:36:57.622Z,7.82
2023-01-29T09:39:24.087Z,10.50
2023-01-29T09:42:05.962Z,9.57
2023-01-29T09:44:51.731Z,7.53
2023-01-29T09:47:19.882Z,9.63
2023-01-29T09:49:55.664Z,8.55
2023-01-29T09:52:31.092Z,8.60
2023-01-29T09:55:09.930Z,7.47
2023-01-29T09:57:53.471Z,12.05
2023-01-29T10:00:38.530Z,9.75
2023-01-29T10:03:21.083Z,10.27
2023-01-29T10:05:55.464Z,11.82
2023-01-29T10:08:49.199Z,7.82
2023-01-29T10:11:46.307Z,20.88
2023-01-29T10:14:53.850Z,13.98
2023-01-29T10:17:39.550Z,14.05
2023-01-29T10:20:33.334Z,20.58
2023-01-29T10:23:31.918Z,19.23
2023-01-29T10:26:00.185Z,25.67
2023-01-29T10:28:33.974Z,20.75
2023-01-29T10:31:15.246Z,16.50
2023-01-29T10:34:01.550Z,18.30
2023-01-29T10:36:36.091Z,18.35
2023-01-29T10:39:03.346Z,18.05
2023-01-29T10:41:56.865Z,15.48
2023-01-29T10:44:53.559Z,14.05
2023-01-29T10:47:42.194Z,16.02
2023-01-29T10:50:33.663Z,18.20
2023-01-29T10:53:08.447Z,18.90
2023-01-29T10:55:52.853Z,16.70
2023-01-29T10:58:36.504Z,18.77
2023-01-29T11:01:03.499Z,17.65
2023-01-29T11:03:32.524Z,19.35
2023-01-29T11:06:20.683Z,18.65
2023-01-29T11:08:59.234Z,18.42
2023-01-29T11:11:33.776Z,16.02
2023-01-29T11:14:07.019Z,16.25
2023-01-29T11:16:42.974Z,18.25
2023-01-29T11:19:10.606Z,13.93
2023-01-29T11:21:59.903Z,14.98
2023-01-29T11:24:27.337Z,14.50
2023-01-29T11:26:57.705Z,15.38
2023-01-29T11:29:29.911Z,25.17
2023-01-29T11:32:04.110Z,20.42
2023-01-29T11:34:33.556Z,20.77
2023-01-29T11:37:05.779Z,20.92
2023-01-29T11:39:32.882Z,21.42
2023-01-29T11:42:04.581Z,21.88
2023-01-29T11:44:33.955Z,22.45
2023-01-29T11:47:12.865Z,18.45
2023-01-29T11:49:45.009Z,19.17
2023-01-29T11:52:13.868Z,17.35
2023-01-29T11:55:03.778Z,19.38
2023-01-29T11:57:35.583Z,18.67
2023-01-29T12:00:07.138Z,20.17
2023-01-29T12:02:41.854Z,17.67
2023-01-29T12:05:18.589Z,19.08
2023-01-29T12:07:48.932Z,18.48
2023-01-29T12:13:21.254Z,18.88
2023-01-29T12:15:49.272Z,18.85
2023-01-29T12:18:38.091Z,21.48
2023-01-29T12:21:11.032Z,22.65
2023-01-29T12:24:15.704Z,17.90
2023-01-29T12:26:58.253Z,19.13
2023-01-29T12:29:43.008Z,22.98
2023-01-29T12:32:38.217Z,20.92
2023-01-29T12:35:23.019Z,22.48
2023-01-29T12:38:08.535Z,20.60
2023-01-29T12:40:43.115Z,21.05
2023-01-29T12:43:17.176Z,21.80
2023-01-29T12:45:48.052Z,24.30
2023-01-29T12:48:20.739Z,20.92
2023-01-29T12:50:50.137Z,21.92
2023-01-29T12:53:35.111Z,23.98
2023-01-29T12:56:11.113Z,22.85
2023-01-29T12:58:50.538Z,20.00
2023-01-29T13:01:27.243Z,24.08
2023-01-29T13:03:57.611Z,22.40
2023-01-29T13:06:31.748Z,20.65
2023-01-29T13:09:02.971Z,21.60
2023-01-29T13:11:37.493Z,22.50
2023-01-29T13:14:18.942Z,22.83
2023-01-29T13:16:49.702Z,21.40
2023-01-29T13:19:23.948Z,23.83
2023-01-29T13:21:52.459Z,23.45
2023-01-29T13:24:23.527Z,21.38
2023-01-29T13:26:50.865Z,23.33
2023-01-29T13:29:27.543Z,23.50
2023-01-29T13:32:00.632Z,19.90
2023-01-29T13:34:31.443Z,19.70
2023-01-29T13:37:01.919Z,22.38
2023-01-29T13:39:37.565Z,22.25
2023-01-29T13:42:18.995Z,20.27
2023-01-29T13:44:51.387Z,19.10
2023-01-29T13:47:27.155Z,18.25
2023-01-29T13:49:59.731Z,24.13
2023-01-29T13:52:36.292Z,23.25
2023-01-29T13:55:31.226Z,22.17
2023-01-29T13:58:02.835Z,22.80
2023-01-29T14:00:35.405Z,23.00
2023-01-29T14:03:05.157Z,24.15
2023-01-29T14:05:31.841Z,21.63
2023-01-29T14:08:28.089Z,23.17
2023-01-29T14:11:21.666Z,20.60
2023-01-29T14:13:49.989Z,20.85
2023-01-29T14:16:16.483Z,23.88
2023-01-29T14:18:58.093Z,20.88
2023-01-29T14:21:36.994Z,24.38
2023-01-29T14:24:17.032Z,24.02
2023-01-29T14:26:45.956Z,21.08
2023-01-29T14:29:14.524Z,23.75
2023-01-29T14:34:33.025Z,22.38
2023-01-29T14:37:19.524Z,21.63
2023-01-29T14:39:52.432Z,21.67
2023-01-29T14:42:25.989Z,19.50
2023-01-29T14:44:55.519Z,26.17
2023-01-29T14:47:43.480Z,18.33
2023-01-29T14:50:33.256Z,24.52
2023-01-29T14:53:19.565Z,21.73
2023-01-29T14:56:01.177Z,18.10
2023-01-29T14:58:56.268Z,19.65
2023-01-29T15:01:34.456Z,15.95
2023-01-29T15:04:12.192Z,19.23
2023-01-29T15:06:46.541Z,16.70
2023-01-29T15:09:40.922Z,18.48
2023-01-29T15:12:33.302Z,16.55
2023-01-29T15:15:15.667Z,22.25
2023-01-29T15:18:03.483Z,19.80
2023-01-29T15:20:44.493Z,17.60
2023-01-29T15:23:34.071Z,15.73
2023-01-29T15:26:03.226Z,16.98
2023-01-29T15:28:34.531Z,16.30
2023-01-29T15:31:07.843Z,17.30
2023-01-29T15:33:38.741Z,18.40
2023-01-29T15:38:35.798Z,19.35
2023-01-29T15:41:16.293Z,21.70
2023-01-29T15:43:56.657Z,20.70
2023-01-29T15:49:31.964Z,21.40
2023-01-29T15:52:02.013Z,17.33
2023-01-29T15:54:31.989Z,16.92
2023-01-29T15:56:59.302Z,17.65
2023-01-29T15:59:30.656Z,21.67
2023-01-29T16:01:58.161Z,19.02
2023-01-29T16:04:28.944Z,21.17
2023-01-29T16:06:57.993Z,23.02
2023-01-29T16:09:27.411Z,24.70
2023-01-29T16:11:58.492Z,22.95
2023-01-29T16:14:26.679Z,25.05
2023-01-29T16:16:53.767Z,21.52
2023-01-29T16:19:20.233Z,21.75
2023-01-29T16:21:54.672Z,26.45
2023-01-29T16:24:23.310Z,25.58
2023-01-29T16:26:52.245Z,30.05
2023-01-29T16:29:22.455Z,24.77
2023-01-29T16:34:29.007Z,28.63
2023-01-29T16:36:56.372Z,30.90
2023-01-29T16:39:25.499Z,24.13
2023-01-29T16:42:17.052Z,23.48
2023-01-29T16:45:06.503Z,23.08
2023-01-29T16:47:38.292Z,26.00
2023-01-29T16:50:36.050Z,25.95
2023-01-29T16:53:13.412Z,28.08
2023-01-29T16:55:45.464Z,24.25
2023-01-29T16:58:18.172Z,26.25
2023-01-29T17:01:07.951Z,23.35
2023-01-29T17:03:36.461Z,25.20
2023-01-29T17:06:19.131Z,26.67
2023-01-29T17:08:46.143Z,25.73
2023-01-29T17:11:22.766Z,27.52
2023-01-29T17:13:49.352Z,24.48
2023-01-29T17:16:25.954Z,24.45
2023-01-29T17:18:52.690Z,26.50
2023-01-29T17:21:19.132Z,26.02
2023-01-29T17:23:45.759Z,28.67
2023-01-29T17:26:14.544Z,32.90
2023-01-29T17:28:42.427Z,27.58
2023-01-29T17:31:09.206Z,41.53
2023-01-29T17:33:40.381Z,35.45
2023-01-29T17:36:12.180Z,32.05
2023-01-29T17:38:39.756Z,35.15
2023-01-29T17:41:09.145Z,33.13
2023-01-29T17:43:35.683Z,28.58
2023-01-29T17:46:02.322Z,31.83
2023-01-29T17:48:30.208Z,25.65
2023-01-29T17:51:00.834Z,26.73
2023-01-29T17:53:43.291Z,26.70
2023-01-29T17:56:16.944Z,29.27
2023-01-29T17:58:43.926Z,26.23
2023-01-29T18:01:10.738Z,38.03
2023-01-29T18:03:37.629Z,32.78
2023-01-29T18:06:08.208Z,31.45
2023-01-29T18:11:02.736Z,31.90
2023-01-29T18:13:29.721Z,32.05
2023-01-29T18:15:56.270Z,34.85
2023-01-29T18:18:24.253Z,30.38
2023-01-29T18:20:51.144Z,27.98
2023-01-29T18:23:17.795Z,31.67
2023-01-29T18:25:44.779Z,36.20
2023-01-29T18:28:17.796Z,32.45
2023-01-29T18:30:47.244Z,32.47
2023-01-29T18:33:14.648Z,38.17
2023-01-29T18:35:41.476Z,37.20
2023-01-29T18:38:08.000Z,37.88
2023-01-29T18:40:34.599Z,35.92
2023-01-29T18:43:01.164Z,39.75
2023-01-29T18:45:28.778Z,33.25
2023-01-29T18:47:56.176Z,34.75
2023-01-29T18:50:24.838Z,30.55
2023-01-29T18:52:51.471Z,27.75
2023-01-29T18:55:18.205Z,30.90
2023-01-29T18:58:29.054Z,26.00
2023-01-29T19:00:31.477Z,25.08
2023-01-29T19:02:57.972Z,22.50
2023-01-29T19:05:25.571Z,23.25
2023-01-29T19:07:52.361Z,26.02
2023-01-29T19:10:19.070Z,25.50
2023-01-29T19:12:45.671Z,24.20
2023-01-29T19:15:12.338Z,25.42
2023-01-29T19:17:39.249Z,27.73
2023-01-29T19:20:06.361Z,28.42
2023-01-29T19:22:32.971Z,24.40
2023-01-29T19:24:59.470Z,24.45
2023-01-29T19:27:30.229Z,24.88
2023-01-29T19:32:24.408Z,25.92
2023-01-29T19:34:51.628Z,26.48
2023-01-29T19:37:18.065Z,30.35
2023-01-29T19:39:44.683Z,24.25
2023-01-29T19:42:11.371Z,25.67
2023-01-29T19:44:39.737Z,25.92
2023-01-29T19:47:07.419Z,22.58
2023-01-29T19:49:34.193Z,26.35
2023-01-29T19:52:02.230Z,26.50
2023-01-29T19:54:29.537Z,23.52
2023-01-29T19:56:56.490Z,25.77
2023-01-29T19:59:22.944Z,24.52
2023-01-29T20:01:50.173Z,23.80
2023-01-29T20:04:16.756Z,24.30
2023-01-29T20:06:43.266Z,24.77
2023-01-29T20:09:09.986Z,27.25
2023-01-29T20:11:36.785Z,28.17
2023-01-29T20:14:03.476Z,27.15
2023-01-29T20:16:30.203Z,25.38
2023-01-29T20:19:13.189Z,28.25
2023-01-29T20:21:45.367Z,25.58
2023-01-29T20:24:13.484Z,23.65
2023-01-29T20:26:40.299Z,30.85
2023-01-29T20:29:07.454Z,27.55
2023-01-29T20:31:34.148Z,28.15
2023-01-29T20:34:00.608Z,26.60
2023-01-29T20:36:27.214Z,28.05
2023-01-29T20:38:53.732Z,25.13
2023-01-29T20:41:22.310Z,28.02
2023-01-29T20:43:50.741Z,23.42
2023-01-29T20:46:18.532Z,26.48
2023-01-29T20:48:45.200Z,26.13
2023-01-29T20:51:15.398Z,24.42
2023-01-29T20:56:14.600Z,27.65
2023-01-29T20:58:41.883Z,24.20
2023-01-29T21:01:10.635Z,23.88
2023-01-29T21:03:39.093Z,25.50
2023-01-29T21:06:06.534Z,24.80
2023-01-29T21:08:33.457Z,28.02
2023-01-29T21:11:00.381Z,25.58
2023-01-29T21:13:27.532Z,27.88
2023-01-29T21:15:54.332Z,29.15
2023-01-29T21:18:21.203Z,25.42
2023-01-29T21:20:50.724Z,26.45
2023-01-29T21:23:17.478Z,27.60
2023-01-29T21:25:45.726Z,27.70
2023-01-29T21:28:16.019Z,27.67
2023-01-29T21:30:50.318Z,29.13
2023-01-29T21:33:17.490Z,24.27
2023-01-29T21:35:44.203Z,21.67
2023-01-29T21:38:10.734Z,23.77
2023-01-29T21:40:37.676Z,23.90
2023-01-29T21:43:13.226Z,27.80
2023-01-29T21:45:40.931Z,25.77
2023-01-29T21:48:09.385Z,25.25
2023-01-29T21:50:36.941Z,32.15
2023-01-29T21:53:06.758Z,24.92
2023-01-29T21:55:33.441Z,25.33
2023-01-29T21:58:00.714Z,26.15
2023-01-29T22:00:28.307Z,24.35
2023-01-29T22:02:58.574Z,25.40
2023-01-29T22:07:53.225Z,29.48
2023-01-29T22:10:20.696Z,26.48
2023-01-29T22:12:48.616Z,26.08
2023-01-29T22:15:15.974Z,28.80
2023-01-29T22:17:42.523Z,22.42
2023-01-29T22:20:13.689Z,25.05
2023-01-29T22:22:40.335Z,24.33
2023-01-29T22:25:07.664Z,23.60
2023-01-29T22:27:34.627Z,26.25
2023-01-29T22:30:01.326Z,25.25
2023-01-29T22:32:28.191Z,22.60
2023-01-29T22:34:54.805Z,25.45
2023-01-29T22:37:21.971Z,24.10
2023-01-29T22:39:48.702Z,22.70
2023-01-29T22:42:15.728Z,28.67
2023-01-29T22:44:42.900Z,24.83
2023-01-29T22:47:09.462Z,25.85
2023-01-29T22:49:36.307Z,24.42
2023-01-29T22:52:11.922Z,22.83
2023-01-29T22:54:40.652Z,25.00
2023-01-29T22:57:10.336Z,25.60
2023-01-29T22:59:37.186Z,26.00
2023-01-29T23:02:04.220Z,25.88
2023-01-29T23:04:30.855Z,24.35
2023-01-29T23:06:57.347Z,23.27
2023-01-29T23:09:24.265Z,25.27
2023-01-29T23:11:50.984Z,28.02
2023-01-29T23:14:17.682Z,27.95
2023-01-29T23:16:44.396Z,27.48
2023-01-29T23:19:11.945Z,27.00
2023-01-29T23:21:39.816Z,27.33
2023-01-29T23:24:08.016Z,25.95
2023-01-29T23:26:53.459Z,24.65
2023-01-29T23:29:20.467Z,32.55
2023-01-29T23:31:47.020Z,25.92
2023-01-29T23:34:14.354Z,28.13
2023-01-29T23:36:41.691Z,31.17
2023-01-29T23:39:08.413Z,26.20
2023-01-29T23:41:35.272Z,24.77
2023-01-29T23:44:02.365Z,26.50
2023-01-29T23:46:29.211Z,31.55
2023-01-29T23:48:55.873Z,28.23
2023-01-29T23:51:22.618Z,24.27
2023-01-29T23:53:51.751Z,26.15
2023-01-29T23:56:18.225Z,25.85
2023-01-29T23:58:44.975Z,28.77
